createdAt,value
2023-04-29T01:30:10.928Z,100.00
2023-04-29T01:46:10.830Z,100.00
2023-04-29T02:14:12.293Z,100.00
2023-04-29T02:17:44.179Z,100.00
2023-04-29T02:20:51.045Z,100.00
2023-04-29T02:30:53.195Z,100.00
2023-04-29T02:33:46.734Z,100.00
2023-04-29T02:44:09.996Z,100.00
2023-04-29T02:46:50.996Z,100.00
2023-04-29T02:49:43.733Z,100.00
2023-04-29T02:52:20.588Z,100.00
2023-04-29T02:58:16.312Z,100.00
2023-04-29T03:07:58.967Z,100.00
2023-04-29T03:18:28.236Z,100.00
2023-04-29T03:46:47.194Z,100.00
2023-04-29T03:49:27.878Z,100.00
2023-04-29T03:58:24.490Z,100.00
2023-04-29T04:00:58.936Z,100.00
2023-04-29T04:03:36.696Z,100.00
2023-04-29T04:06:19.348Z,100.00
2023-04-29T04:08:57.718Z,100.00
2023-04-29T04:11:30.638Z,100.00
2023-04-29T04:14:02.827Z,100.00
2023-04-29T04:16:35.316Z,100.00
2023-04-29T04:19:07.561Z,100.00
2023-04-29T04:21:39.775Z,100.00
2023-04-29T04:24:12.258Z,100.00
2023-04-29T04:26:44.552Z,100.00
2023-04-29T04:29:16.855Z,100.00
2023-04-29T04:31:49.069Z,100.00
2023-04-29T04:34:21.524Z,100.00
2023-04-29T04:36:53.758Z,100.00
2023-04-29T04:39:26.006Z,100.00
2023-04-29T04:41:58.731Z,100.00
2023-04-29T04:44:31.673Z,100.00
2023-04-29T04:47:04.149Z,100.00
2023-04-29T04:49:36.301Z,100.00
2023-04-29T04:52:08.572Z,100.00
2023-04-29T04:54:40.729Z,100.00
2023-04-29T04:57:13.021Z,100.00
2023-04-29T04:59:45.241Z,100.00
2023-04-29T05:02:17.653Z,100.00
2023-04-29T05:04:50.598Z,100.00
2023-04-29T05:07:22.816Z,100.00
2023-04-29T05:09:55.034Z,100.00
2023-04-29T05:12:30.992Z,100.00
2023-04-29T05:15:04.708Z,100.00
2023-04-29T05:17:36.993Z,100.00
2023-04-29T05:20:09.956Z,100.00
2023-04-29T05:22:42.576Z,100.00
2023-04-29T05:25:14.798Z,100.00
2023-04-29T05:27:47.150Z,100.00
2023-04-29T05:30:19.812Z,100.00
2023-04-29T05:32:52.257Z,100.00
2023-04-29T05:35:25.533Z,100.00
2023-04-29T05:37:58.133Z,100.00
2023-04-29T05:40:30.542Z,100.00
2023-04-29T05:43:05.788Z,100.00
2023-04-29T05:45:37.999Z,100.00
2023-04-29T05:48:10.626Z,100.00
2023-04-29T05:50:43.157Z,100.00
2023-04-29T05:53:15.623Z,100.00
2023-04-29T05:55:49.157Z,100.00
2023-04-29T05:58:22.667Z,100.00
2023-04-29T06:00:54.859Z,100.00
2023-04-29T06:03:27.305Z,100.00
2023-04-29T06:05:59.774Z,100.00
2023-04-29T06:08:32.255Z,100.00
2023-04-29T06:11:05.639Z,100.00
2023-04-29T06:13:37.894Z,100.00
2023-04-29T06:16:10.999Z,100.00
2023-04-29T06:18:43.249Z,100.00
2023-04-29T06:21:16.469Z,100.00
2023-04-29T06:23:48.659Z,100.00
2023-04-29T06:26:33.810Z,100.00
2023-04-29T06:29:06.242Z,100.00
2023-04-29T06:31:38.841Z,100.00
2023-04-29T06:34:11.645Z,100.00
2023-04-29T06:36:43.806Z,100.00
2023-04-29T06:39:16.048Z,100.00
2023-04-29T06:41:48.164Z,100.00
2023-04-29T06:44:20.657Z,100.00
2023-04-29T06:46:53.084Z,100.00
2023-04-29T06:49:26.765Z,100.00
2023-04-29T06:51:59.856Z,100.00
2023-04-29T06:54:32.240Z,100.00
2023-04-29T06:57:04.571Z,100.00
2023-04-29T06:59:36.958Z,100.00
2023-04-29T07:02:09.129Z,99.69
2023-04-29T07:04:41.930Z,99.61
2023-04-29T07:07:14.417Z,99.30
2023-04-29T07:09:46.737Z,97.60
2023-04-29T07:12:19.126Z,97.57
2023-04-29T07:14:51.445Z,98.18
2023-04-29T07:17:24.213Z,96.45
2023-04-29T07:19:59.864Z,97.66
2023-04-29T07:22:32.138Z,96.60
2023-04-29T07:25:04.866Z,95.89
2023-04-29T07:27:37.750Z,95.71
2023-04-29T07:30:10.480Z,96.10
2023-04-29T07:32:42.811Z,95.70
2023-04-29T07:35:15.565Z,95.22
2023-04-29T07:37:48.493Z,93.97
2023-04-29T07:40:20.968Z,93.47
2023-04-29T07:42:53.187Z,91.71
2023-04-29T07:45:25.632Z,91.65
2023-04-29T07:47:57.858Z,90.21
2023-04-29T07:50:30.162Z,90.78
2023-04-29T07:53:03.208Z,89.59
2023-04-29T07:55:37.947Z,88.84
2023-04-29T07:58:10.199Z,88.17
2023-04-29T08:00:42.466Z,86.83
2023-04-29T08:03:15.006Z,83.10
2023-04-29T08:05:48.714Z,83.80
2023-04-29T08:08:21.186Z,83.18
2023-04-29T08:10:53.431Z,83.48
2023-04-29T08:13:26.315Z,79.62
2023-04-29T08:15:58.582Z,75.76
2023-04-29T08:18:30.822Z,74.83
2023-04-29T08:21:04.058Z,75.56
2023-04-29T08:23:36.553Z,75.72
2023-04-29T08:26:11.543Z,71.26
2023-04-29T08:28:44.273Z,70.91
2023-04-29T08:31:21.810Z,67.17
2023-04-29T08:33:54.186Z,69.03
2023-04-29T08:36:28.318Z,65.66
2023-04-29T08:39:00.510Z,62.60
2023-04-29T08:41:35.993Z,59.24
2023-04-29T08:44:08.249Z,60.15
2023-04-29T08:46:41.023Z,50.94
2023-04-29T08:49:14.178Z,56.51
2023-04-29T08:51:51.916Z,50.55
2023-04-29T08:54:24.304Z,49.89
2023-04-29T08:56:58.486Z,52.73
2023-04-29T08:59:31.649Z,48.96
2023-04-29T09:02:08.732Z,49.68
2023-04-29T09:05:13.906Z,47.97
2023-04-29T09:07:47.208Z,46.92
2023-04-29T09:10:20.122Z,47.25
2023-04-29T09:13:00.096Z,44.26
2023-04-29T09:15:43.002Z,44.05
2023-04-29T09:18:49.085Z,39.03
2023-04-29T09:21:23.398Z,39.18
2023-04-29T09:23:59.233Z,38.84
2023-04-29T09:26:43.518Z,38.80
2023-04-29T09:29:16.686Z,37.83
2023-04-29T09:31:49.885Z,36.96
2023-04-29T09:34:39.883Z,37.33
2023-04-29T09:37:27.746Z,40.98
2023-04-29T09:40:00.278Z,41.74
2023-04-29T09:42:43.864Z,41.18
2023-04-29T09:45:42.000Z,39.03
2023-04-29T09:48:15.860Z,39.33
2023-04-29T09:51:03.476Z,39.15
2023-04-29T09:53:38.387Z,36.81
2023-04-29T09:56:10.574Z,35.54
2023-04-29T09:58:43.667Z,34.67
2023-04-29T10:01:19.777Z,34.77
2023-04-29T10:03:54.950Z,33.88
2023-04-29T10:06:27.171Z,34.48
2023-04-29T10:09:01.540Z,35.53
2023-04-29T10:11:35.502Z,35.04
2023-04-29T10:14:13.507Z,33.57
2023-04-29T10:17:11.900Z,33.22
2023-04-29T10:20:39.886Z,35.83
2023-04-29T10:46:17.117Z,31.10
2023-04-29T10:48:56.365Z,33.52
2023-04-29T10:51:40.721Z,34.26
2023-04-29T10:54:21.011Z,31.36
2023-04-29T10:56:56.268Z,29.84
2023-04-29T10:59:29.261Z,30.27
2023-04-29T11:02:03.056Z,27.16
2023-04-29T11:04:38.743Z,30.86
2023-04-29T11:07:28.727Z,33.29
2023-04-29T11:10:04.378Z,35.02
2023-04-29T11:12:38.052Z,33.59
2023-04-29T11:15:12.233Z,34.47
2023-04-29T11:17:48.883Z,30.07
2023-04-29T11:20:23.568Z,28.00
2023-04-29T11:22:57.281Z,27.64
2023-04-29T11:25:31.195Z,27.38
2023-04-29T11:28:05.893Z,27.77
2023-04-29T11:30:44.327Z,26.52
2023-04-29T11:33:18.177Z,23.70
2023-04-29T11:35:51.104Z,24.16
2023-04-29T11:47:25.138Z,21.91
2023-04-29T11:50:16.178Z,22.20
2023-04-29T12:01:56.636Z,20.98
2023-04-29T12:17:55.136Z,21.50
2023-04-29T12:32:18.781Z,23.15
2023-04-29T13:05:45.869Z,21.63
2023-04-29T13:08:23.716Z,21.44
2023-04-29T13:18:11.278Z,23.22
2023-04-29T13:38:54.688Z,25.41
2023-04-29T13:45:55.930Z,26.46
2023-04-29T14:04:30.896Z,27.54
2023-04-29T14:07:07.812Z,27.42
2023-04-29T14:09:42.966Z,28.22
2023-04-29T14:12:15.378Z,29.04
2023-04-29T14:14:47.488Z,29.42
2023-04-29T14:17:19.739Z,28.13
2023-04-29T14:19:52.219Z,29.78
2023-04-29T14:22:24.641Z,28.66
2023-04-29T14:24:56.789Z,29.74
2023-04-29T14:27:28.982Z,30.24
2023-04-29T14:30:01.142Z,30.21
2023-04-29T14:32:33.265Z,31.42
2023-04-29T14:35:06.817Z,31.61
2023-04-29T14:37:38.993Z,30.99
2023-04-29T14:40:11.536Z,31.05
2023-04-29T14:42:43.735Z,31.94
2023-04-29T14:45:17.340Z,31.87
2023-04-29T14:47:49.690Z,32.76
2023-04-29T14:50:23.431Z,31.54
2023-04-29T14:52:58.048Z,30.76
2023-04-29T14:55:31.543Z,31.27
2023-04-29T14:58:05.219Z,31.81
2023-04-29T15:00:37.422Z,31.49
2023-04-29T15:03:10.694Z,33.01
2023-04-29T15:05:42.996Z,31.81
2023-04-29T15:08:15.225Z,32.41
2023-04-29T15:10:48.014Z,33.78
2023-04-29T15:13:20.313Z,34.69
2023-04-29T15:15:52.914Z,35.23
2023-04-29T15:18:26.654Z,35.36
2023-04-29T15:20:59.402Z,36.48
2023-04-29T15:23:31.812Z,37.40
2023-04-29T15:26:04.360Z,37.35
2023-04-29T15:28:36.766Z,37.89
2023-04-29T15:31:08.922Z,38.81
2023-04-29T15:33:41.242Z,39.64
2023-04-29T15:36:20.973Z,40.39
2023-04-29T15:38:53.274Z,41.12
2023-04-29T15:41:26.366Z,42.64
2023-04-29T15:43:58.692Z,44.01
2023-04-29T15:46:32.006Z,44.81
2023-04-29T15:49:06.213Z,46.81
2023-04-29T15:51:38.682Z,47.25
2023-04-29T15:54:10.890Z,47.40
2023-04-29T15:56:43.161Z,47.36
2023-04-29T15:59:16.263Z,47.83
2023-04-29T16:01:48.468Z,48.56
2023-04-29T16:04:21.809Z,49.73
2023-04-29T16:06:54.228Z,50.45
2023-04-29T16:09:27.935Z,52.60
2023-04-29T16:12:00.739Z,54.39
2023-04-29T16:14:33.085Z,52.25
2023-04-29T16:17:06.007Z,52.27
2023-04-29T16:19:38.587Z,53.00
2023-04-29T16:22:11.192Z,52.95
2023-04-29T16:24:49.393Z,53.23
2023-04-29T16:27:22.616Z,53.81
2023-04-29T16:29:55.964Z,54.28
2023-04-29T16:32:29.269Z,52.34
2023-04-29T16:35:02.021Z,52.86
2023-04-29T16:37:37.758Z,52.32
2023-04-29T16:40:11.358Z,50.45
2023-04-29T16:45:39.928Z,51.46
2023-04-29T16:48:12.354Z,52.99
2023-04-29T16:50:44.671Z,52.93
2023-04-29T16:53:16.992Z,53.32
2023-04-29T16:55:50.982Z,54.06
2023-04-29T16:58:23.632Z,54.17
2023-04-29T17:00:56.026Z,54.93
2023-04-29T17:03:28.361Z,53.30
2023-04-29T17:06:01.232Z,54.19
2023-04-29T17:08:33.600Z,52.48
2023-04-29T17:11:06.144Z,52.79
2023-04-29T17:13:38.518Z,54.36
2023-04-29T17:16:17.058Z,54.50
2023-04-29T17:18:49.392Z,54.69
2023-04-29T17:21:26.108Z,54.42
2023-04-29T17:23:59.149Z,55.19
2023-04-29T17:26:31.874Z,55.90
2023-04-29T17:29:04.553Z,57.25
2023-04-29T17:31:45.624Z,57.52
2023-04-29T17:34:24.241Z,56.11
2023-04-29T17:36:56.609Z,57.10
2023-04-29T17:39:29.427Z,59.05
2023-04-29T17:42:01.717Z,60.22
2023-04-29T17:44:34.240Z,58.79
2023-04-29T17:47:06.650Z,59.99
2023-04-29T17:49:39.074Z,59.58
2023-04-29T17:55:06.667Z,59.71
2023-04-29T17:57:40.434Z,60.01
2023-04-29T18:00:13.238Z,59.81
2023-04-29T18:02:45.600Z,60.59
2023-04-29T18:05:17.763Z,61.53
2023-04-29T18:07:49.958Z,60.93
2023-04-29T18:10:22.057Z,63.36
2023-04-29T18:12:54.354Z,63.57
2023-04-29T18:15:26.566Z,62.50
2023-04-29T18:17:58.982Z,62.35
2023-04-29T18:20:31.448Z,63.17
2023-04-29T18:23:03.556Z,64.20
2023-04-29T18:25:39.736Z,64.30
2023-04-29T18:28:24.211Z,65.25
2023-04-29T18:30:57.834Z,65.90
2023-04-29T18:33:31.635Z,66.31
2023-04-29T18:36:04.525Z,67.17
2023-04-29T18:38:37.204Z,68.26
2023-04-29T18:41:10.399Z,68.60
2023-04-29T18:43:42.584Z,68.72
2023-04-29T18:46:15.545Z,68.79
2023-04-29T18:48:47.871Z,69.27
2023-04-29T18:51:19.997Z,69.62
2023-04-29T18:53:52.220Z,69.28
2023-04-29T18:56:24.346Z,69.03
2023-04-29T18:58:56.665Z,69.68
2023-04-29T19:01:29.192Z,69.14
2023-04-29T19:04:07.346Z,68.84
2023-04-29T19:06:42.289Z,68.42
2023-04-29T19:09:18.433Z,69.51
2023-04-29T19:12:09.086Z,69.35
2023-04-29T19:14:45.261Z,69.84
2023-04-29T19:17:53.903Z,70.16
2023-04-29T19:20:30.397Z,71.09
2023-04-29T19:39:43.686Z,73.30
2023-04-29T19:45:10.977Z,70.91
2023-04-29T19:54:14.296Z,70.10
2023-04-29T20:21:50.234Z,69.41
2023-04-29T20:24:29.474Z,69.04
2023-04-29T20:40:24.006Z,69.27
2023-04-29T20:43:01.320Z,69.53
2023-04-29T20:45:35.349Z,68.98
2023-04-29T20:48:15.206Z,68.96
2023-04-29T20:50:53.895Z,69.38
2023-04-29T20:56:16.928Z,69.44
2023-04-29T20:59:03.944Z,69.11
2023-04-29T21:02:04.215Z,69.03
2023-04-29T21:07:57.178Z,69.14
2023-04-29T21:13:21.967Z,69.34
2023-04-29T21:38:54.682Z,69.66
2023-04-29T21:41:29.604Z,69.59
2023-04-29T21:44:02.805Z,70.13
2023-04-29T21:46:36.066Z,70.85
2023-04-29T21:49:08.806Z,71.18
2023-04-29T21:51:41.555Z,70.69
2023-04-29T21:54:14.307Z,70.24
2023-04-29T21:56:46.704Z,70.99
2023-04-29T21:59:18.959Z,70.61
2023-04-29T22:02:00.329Z,71.22
2023-04-29T22:04:32.808Z,70.49
2023-04-29T22:07:04.943Z,71.39
2023-04-29T22:09:37.262Z,70.63
2023-04-29T22:12:09.516Z,71.31
2023-04-29T22:14:41.750Z,71.96
2023-04-29T22:17:14.839Z,71.38
2023-04-29T22:19:47.071Z,71.92
2023-04-29T22:22:19.632Z,71.73
2023-04-29T22:24:51.928Z,71.89
2023-04-29T22:27:24.411Z,71.87
2023-04-29T22:29:57.121Z,72.29
2023-04-29T22:32:29.443Z,72.30
2023-04-29T22:35:01.787Z,72.57
2023-04-29T22:37:33.990Z,73.16
2023-04-29T22:40:07.946Z,72.04
2023-04-29T22:42:42.074Z,73.02
2023-04-29T22:45:14.186Z,72.78
2023-04-29T22:47:46.544Z,72.97
2023-04-29T22:50:18.929Z,72.71
2023-04-29T22:52:51.218Z,72.76
2023-04-29T22:55:23.385Z,72.98
2023-04-29T22:57:55.741Z,73.35
2023-04-29T23:00:28.018Z,73.37
2023-04-29T23:03:00.316Z,73.53
2023-04-29T23:05:32.519Z,73.99
2023-04-29T23:08:05.509Z,74.40
2023-04-29T23:10:37.832Z,73.93
2023-04-29T23:13:10.210Z,74.29
2023-04-29T23:15:42.503Z,74.72
2023-04-29T23:18:14.896Z,73.98
2023-04-29T23:20:51.616Z,74.08
2023-04-29T23:23:24.101Z,75.01
2023-04-29T23:25:56.390Z,75.25
2023-04-29T23:28:28.730Z,75.94
2023-04-29T23:31:01.075Z,75.43
2023-04-29T23:33:33.336Z,75.65
2023-04-29T23:36:06.223Z,75.69
2023-04-29T23:38:38.504Z,76.36
2023-04-29T23:41:10.924Z,76.46
2023-04-29T23:43:43.066Z,76.36
2023-04-29T23:46:18.063Z,76.83
2023-04-29T23:48:50.268Z,76.67
2023-04-29T23:51:22.395Z,76.93
2023-04-29T23:53:54.589Z,77.25
2023-04-29T23:56:29.265Z,77.21
2023-04-29T23:59:01.902Z,77.63
